createdAt,value
2018-06-04T00:00:14.754Z,50.18
2018-06-04T00:02:43.679Z,50.85
2018-06-04T00:05:12.654Z,51.08
2018-06-04T00:07:41.600Z,50.55
2018-06-04T00:10:10.582Z,51.66
2018-06-04T00:12:39.536Z,50.58
2018-06-04T00:15:08.482Z,50.95
2018-06-04T00:17:37.411Z,50.67
2018-06-04T00:20:06.492Z,51.07
2018-06-04T00:22:35.422Z,50.67
2018-06-04T00:25:04.411Z,51.68
2018-06-04T00:27:33.362Z,51.30
2018-06-04T00:30:02.262Z,51.57
2018-06-04T00:32:31.216Z,51.52
2018-06-04T00:35:00.153Z,51.30
2018-06-04T00:37:29.130Z,51.10
2018-06-04T00:39:58.072Z,51.67
2018-06-04T00:42:27.030Z,51.50
2018-06-04T00:44:55.951Z,51.74
2018-06-04T00:47:24.927Z,51.33
2018-06-04T00:49:54.005Z,52.40
2018-06-04T00:52:22.954Z,52.07
2018-06-04T00:54:51.855Z,52.06
2018-06-04T00:57:20.821Z,51.91
2018-06-04T00:59:50.603Z,52.39
2018-06-04T01:02:19.558Z,52.37
2018-06-04T01:04:48.465Z,52.79
2018-06-04T01:07:17.402Z,52.21
2018-06-04T01:09:46.315Z,52.74
2018-06-04T01:12:15.270Z,53.80
2018-06-04T01:14:44.195Z,53.43
2018-06-04T01:17:13.150Z,53.90
2018-06-04T01:19:42.087Z,54.18
2018-06-04T01:22:11.110Z,54.00
2018-06-04T01:24:39.993Z,53.43
2018-06-04T01:27:08.922Z,53.40
2018-06-04T01:29:37.854Z,53.51
2018-06-04T01:32:06.819Z,53.49
2018-06-04T01:34:35.767Z,53.47
2018-06-04T01:37:04.772Z,53.99
2018-06-04T01:39:33.703Z,53.86
2018-06-04T01:42:02.680Z,53.79
2018-06-04T01:44:31.628Z,54.07
2018-06-04T01:47:00.604Z,54.24
2018-06-04T01:49:29.539Z,54.55
2018-06-04T01:51:58.531Z,54.66
2018-06-04T01:54:27.660Z,54.70
2018-06-04T01:56:56.639Z,54.07
2018-06-04T01:59:25.587Z,55.02
2018-06-04T02:01:54.681Z,54.99
2018-06-04T02:04:23.643Z,54.45
2018-06-04T02:06:52.625Z,53.94
2018-06-04T02:09:21.555Z,54.73
2018-06-04T02:11:50.569Z,54.06
2018-06-04T02:14:19.524Z,54.15
2018-06-04T02:16:48.514Z,53.87
2018-06-04T02:19:17.454Z,54.50
2018-06-04T02:21:46.446Z,54.33
2018-06-04T02:24:15.384Z,53.99
2018-06-04T02:26:44.346Z,53.79
2018-06-04T02:29:13.359Z,53.92
2018-06-04T02:31:42.385Z,53.73
2018-06-04T02:34:11.356Z,53.84
2018-06-04T02:36:40.343Z,54.34
2018-06-04T02:39:09.291Z,54.09
2018-06-04T02:41:38.292Z,55.56
2018-06-04T02:44:07.244Z,54.47
2018-06-04T02:46:36.235Z,53.93
2018-06-04T02:49:05.205Z,54.18
2018-06-04T02:51:34.235Z,54.65
2018-06-04T02:54:03.173Z,54.49
2018-06-04T02:56:32.219Z,55.69
2018-06-04T02:59:01.163Z,55.46
2018-06-04T03:01:30.143Z,55.89
2018-06-04T03:03:59.123Z,56.90
2018-06-04T03:06:28.172Z,56.12
2018-06-04T03:08:57.140Z,56.29
2018-06-04T03:11:26.140Z,56.58
2018-06-04T03:13:55.091Z,56.70
2018-06-04T03:16:24.110Z,56.56
2018-06-04T03:18:53.042Z,57.40
2018-06-04T03:21:22.031Z,57.99
2018-06-04T03:23:50.992Z,57.54
2018-06-04T03:26:19.954Z,57.28
2018-06-04T03:28:48.978Z,57.42
2018-06-04T03:31:17.923Z,57.76
2018-06-04T03:33:47.064Z,57.20
2018-06-04T03:36:15.994Z,57.59
2018-06-04T03:38:44.984Z,58.05
2018-06-04T03:41:13.913Z,59.07
2018-06-04T03:43:42.900Z,58.43
2018-06-04T03:46:11.938Z,57.84
2018-06-04T03:48:40.887Z,58.07
2018-06-04T03:51:09.850Z,57.42
2018-06-04T03:53:38.859Z,57.47
2018-06-04T03:56:07.826Z,58.17
2018-06-04T03:58:36.790Z,58.14
2018-06-04T04:01:05.779Z,58.38
2018-06-04T04:03:34.770Z,58.25
2018-06-04T04:06:03.714Z,57.84
2018-06-04T04:08:32.773Z,57.01
2018-06-04T04:11:01.718Z,57.00
2018-06-04T04:13:30.685Z,56.65
2018-06-04T04:15:59.634Z,56.70
2018-06-04T04:18:28.611Z,55.36
2018-06-04T04:20:57.585Z,55.79
2018-06-04T04:23:26.558Z,56.18
2018-06-04T04:25:55.495Z,56.17
2018-06-04T04:28:24.535Z,56.13
2018-06-04T04:30:53.583Z,56.96
2018-06-04T04:33:22.558Z,57.44
2018-06-04T04:35:51.502Z,55.73
2018-06-04T04:38:20.520Z,54.44
2018-06-04T04:40:49.466Z,54.16
2018-06-04T04:43:18.478Z,53.63
2018-06-04T04:45:47.438Z,52.85
2018-06-04T04:48:16.421Z,52.92
2018-06-04T04:50:45.362Z,52.48
2018-06-04T04:53:14.374Z,51.91
2018-06-04T04:55:43.324Z,51.47
2018-06-04T04:58:12.398Z,50.89
2018-06-04T05:00:41.371Z,49.67
2018-06-04T05:03:10.441Z,49.19
2018-06-04T05:05:39.427Z,49.30
2018-06-04T05:08:08.424Z,49.36
2018-06-04T05:10:37.431Z,51.21
2018-06-04T05:13:06.433Z,50.59
2018-06-04T05:15:35.384Z,51.44
2018-06-04T05:18:04.377Z,49.83
2018-06-04T05:20:33.329Z,49.05
2018-06-04T05:23:02.323Z,50.21
2018-06-04T05:25:31.262Z,49.24
2018-06-04T05:28:00.263Z,50.48
2018-06-04T05:30:29.245Z,49.02
2018-06-04T05:32:58.244Z,49.02
2018-06-04T05:35:27.206Z,47.91
2018-06-04T05:37:56.224Z,47.72
2018-06-04T05:40:25.176Z,46.45
2018-06-04T05:42:54.173Z,46.33
2018-06-04T05:45:23.124Z,45.74
2018-06-04T05:47:52.278Z,46.99
2018-06-04T05:50:21.254Z,46.98
2018-06-04T05:52:50.275Z,47.37
2018-06-04T05:55:19.225Z,46.54
2018-06-04T05:57:48.232Z,45.55
2018-06-04T06:00:17.202Z,44.85
2018-06-04T06:02:46.335Z,44.71
2018-06-04T06:05:15.274Z,43.92
2018-06-04T06:07:44.289Z,45.19
2018-06-04T06:10:13.275Z,44.38
2018-06-04T06:12:42.235Z,43.89
2018-06-04T06:15:11.241Z,43.77
2018-06-04T06:17:40.383Z,43.58
2018-06-04T06:20:09.391Z,44.30
2018-06-04T06:22:38.385Z,44.28
2018-06-04T06:25:07.420Z,44.14
2018-06-04T06:27:37.058Z,43.99
2018-06-04T06:30:06.136Z,45.55
2018-06-04T06:32:35.087Z,43.83
2018-06-04T06:35:04.061Z,43.93
2018-06-04T06:37:33.086Z,44.09
2018-06-04T06:40:02.059Z,44.25
2018-06-04T06:42:31.025Z,43.67
2018-06-04T06:45:00.015Z,42.11
2018-06-04T06:47:28.919Z,41.62
2018-06-04T06:49:57.986Z,41.85
2018-06-04T06:52:26.949Z,40.54
2018-06-04T06:54:56.487Z,41.86
2018-06-04T06:57:25.430Z,42.09
2018-06-04T06:59:54.622Z,40.23
2018-06-04T07:02:23.557Z,39.94
2018-06-04T07:04:52.606Z,40.00
2018-06-04T07:07:21.555Z,40.35
2018-06-04T07:09:50.525Z,39.83
2018-06-04T07:12:19.488Z,41.28
2018-06-04T07:14:48.480Z,38.76
2018-06-04T07:17:17.440Z,38.96
2018-06-04T07:19:46.413Z,40.03
2018-06-04T07:22:15.358Z,40.18
2018-06-04T07:24:44.314Z,38.92
2018-06-04T07:27:13.256Z,38.45
2018-06-04T07:29:42.307Z,37.85
2018-06-04T07:32:11.335Z,38.84
2018-06-04T07:34:40.324Z,39.49
2018-06-04T07:37:09.268Z,39.95
2018-06-04T07:39:38.277Z,39.67
2018-06-04T07:42:07.245Z,39.19
2018-06-04T07:44:36.277Z,38.26
2018-06-04T07:47:05.217Z,40.33
2018-06-04T07:49:34.241Z,41.85
2018-06-04T07:52:03.220Z,40.66
2018-06-04T07:54:32.226Z,40.66
2018-06-04T07:57:01.176Z,40.39
2018-06-04T07:59:30.207Z,40.15
2018-06-04T08:01:59.187Z,39.70
2018-06-04T08:04:28.274Z,40.02
2018-06-04T08:06:57.187Z,40.88
2018-06-04T08:09:26.198Z,39.02
2018-06-04T08:11:55.635Z,39.38
2018-06-04T08:14:28.812Z,39.06
2018-06-04T08:16:58.416Z,40.34
2018-06-04T08:19:27.438Z,38.57
2018-06-04T08:21:56.563Z,38.47
2018-06-04T08:24:25.615Z,38.39
2018-06-04T08:26:54.967Z,38.10
2018-06-04T08:29:24.017Z,37.52
2018-06-04T08:31:53.651Z,35.94
2018-06-04T08:34:23.221Z,36.55
2018-06-04T08:36:52.940Z,36.32
2018-06-04T08:39:22.418Z,34.92
2018-06-04T08:41:51.902Z,35.36
2018-06-04T08:44:20.960Z,35.37
2018-06-04T08:46:49.944Z,35.64
2018-06-04T08:49:18.939Z,35.78
2018-06-04T08:51:47.927Z,36.89
2018-06-04T08:54:16.909Z,38.36
2018-06-04T08:56:45.861Z,37.13
2018-06-04T08:59:14.849Z,35.84
2018-06-04T09:01:43.805Z,35.58
2018-06-04T09:04:12.791Z,35.71
2018-06-04T09:06:41.772Z,34.62
2018-06-04T09:09:11.087Z,34.87
2018-06-04T09:11:40.098Z,34.80
2018-06-04T09:14:09.098Z,33.05
2018-06-04T09:16:38.066Z,34.31
2018-06-04T09:19:07.079Z,33.49
2018-06-04T09:21:36.060Z,32.82
2018-06-04T09:24:05.160Z,33.55
2018-06-04T09:26:34.169Z,33.91
2018-06-04T09:29:03.157Z,34.57
2018-06-04T09:31:32.179Z,34.17
2018-06-04T09:34:01.142Z,33.75
2018-06-04T09:36:30.127Z,32.93
2018-06-04T09:38:59.106Z,34.02
2018-06-04T09:41:28.158Z,34.81
2018-06-04T09:43:57.134Z,35.13
2018-06-04T09:46:26.138Z,34.73
2018-06-04T09:48:55.186Z,33.73
2018-06-04T09:51:24.182Z,33.73
2018-06-04T09:53:53.188Z,33.90
2018-06-04T09:56:22.159Z,33.09
2018-06-04T09:58:51.138Z,32.55
2018-06-04T10:01:20.109Z,31.20
2018-06-04T10:03:49.035Z,30.80
2018-06-04T10:06:18.027Z,31.07
2018-06-04T10:08:46.978Z,32.33
2018-06-04T10:11:16.050Z,32.90
2018-06-04T10:13:44.975Z,30.00
2018-06-04T10:16:13.987Z,29.77
2018-06-04T10:18:43.457Z,30.78
2018-06-04T10:21:12.595Z,32.10
2018-06-04T10:23:41.592Z,30.97
2018-06-04T10:26:10.586Z,30.23
2018-06-04T10:28:40.386Z,29.34
2018-06-04T10:31:09.358Z,30.96
2018-06-04T10:33:38.312Z,30.51
2018-06-04T10:36:07.374Z,27.58
2018-06-04T10:38:36.322Z,28.00
2018-06-04T10:41:05.441Z,30.49
2018-06-04T10:43:34.437Z,28.57
2018-06-04T10:46:03.417Z,28.39
2018-06-04T10:48:32.351Z,28.13
2018-06-04T10:51:01.629Z,27.36
2018-06-04T10:53:30.557Z,27.08
2018-06-04T10:55:59.543Z,25.08
2018-06-04T10:58:28.487Z,24.98
2018-06-04T11:00:57.503Z,25.82
2018-06-04T11:03:26.447Z,24.19
2018-06-04T11:05:55.430Z,23.72
2018-06-04T11:08:24.370Z,24.84
2018-06-04T11:10:53.362Z,25.40
2018-06-04T11:13:22.342Z,24.38
2018-06-04T11:15:51.331Z,23.02
2018-06-04T11:18:20.262Z,21.26
2018-06-04T11:20:49.243Z,23.96
2018-06-04T11:23:18.190Z,23.73
2018-06-04T11:25:47.221Z,23.62
2018-06-04T11:28:16.178Z,25.69
2018-06-04T11:30:45.156Z,23.35
2018-06-04T11:33:14.094Z,23.65
2018-06-04T11:35:43.147Z,26.06
2018-06-04T11:38:12.335Z,24.68
2018-06-04T11:40:41.346Z,25.97
2018-06-04T11:43:10.345Z,26.22
2018-06-04T11:45:39.331Z,26.67
2018-06-04T11:48:09.520Z,27.93
2018-06-04T11:50:38.578Z,26.25
2018-06-04T11:53:07.565Z,27.15
2018-06-04T11:55:36.556Z,27.86
2018-06-04T11:58:05.505Z,26.83
2018-06-04T12:00:34.517Z,29.38
2018-06-04T12:03:03.464Z,26.99
2018-06-04T12:05:32.537Z,27.30
2018-06-04T12:08:01.478Z,24.51
2018-06-04T12:10:30.484Z,24.60
2018-06-04T12:12:59.435Z,25.25
2018-06-04T12:15:28.533Z,24.47
2018-06-04T12:17:57.698Z,25.50
2018-06-04T12:20:26.746Z,26.65
2018-06-04T12:22:55.713Z,28.41
2018-06-04T12:25:24.715Z,24.79
2018-06-04T12:27:53.671Z,24.81
2018-06-04T12:30:22.622Z,26.43
2018-06-04T12:32:51.621Z,26.42
2018-06-04T12:35:20.563Z,25.98
2018-06-04T12:37:49.514Z,25.78
2018-06-04T12:40:18.483Z,29.73
2018-06-04T12:42:47.493Z,29.88
2018-06-04T12:45:16.439Z,26.86
2018-06-04T12:47:45.417Z,24.46
2018-06-04T12:50:14.367Z,24.00
2018-06-04T12:52:46.343Z,23.82
2018-06-04T12:55:15.318Z,24.72
2018-06-04T12:57:44.689Z,25.98
2018-06-04T13:00:13.836Z,26.44
2018-06-04T13:02:42.809Z,26.81
2018-06-04T13:05:11.756Z,28.89
2018-06-04T13:07:40.915Z,28.76
2018-06-04T13:10:09.863Z,30.04
2018-06-04T13:12:38.841Z,28.28
2018-06-04T13:15:07.795Z,27.47
2018-06-04T13:17:36.789Z,27.37
2018-06-04T13:20:05.860Z,28.34
2018-06-04T13:22:34.863Z,26.80
2018-06-04T13:25:03.898Z,27.09
2018-06-04T13:27:32.889Z,29.30
2018-06-04T13:30:01.897Z,28.46
2018-06-04T13:32:30.851Z,28.12
2018-06-04T13:34:59.786Z,27.22
2018-06-04T13:37:28.783Z,26.61
2018-06-04T13:39:57.730Z,24.55
2018-06-04T13:42:26.791Z,26.57
2018-06-04T13:44:55.738Z,24.33
2018-06-04T13:47:25.094Z,25.20
2018-06-04T13:49:54.209Z,25.90
2018-06-04T13:52:23.241Z,25.01
2018-06-04T13:54:52.182Z,28.21
2018-06-04T13:57:21.184Z,27.37
2018-06-04T13:59:50.162Z,25.51
2018-06-04T14:02:19.173Z,24.18
2018-06-04T14:04:48.110Z,25.14
2018-06-04T14:07:17.118Z,25.20
2018-06-04T14:09:46.073Z,25.46
2018-06-04T14:12:15.093Z,25.10
2018-06-04T14:14:44.061Z,24.93
2018-06-04T14:17:13.202Z,23.96
2018-06-04T14:19:42.133Z,24.92
2018-06-04T14:22:11.253Z,26.36
2018-06-04T14:24:40.399Z,26.61
2018-06-04T14:27:09.395Z,25.24
2018-06-04T14:29:38.432Z,26.85
2018-06-04T14:32:07.442Z,25.70
2018-06-04T14:34:36.415Z,26.63
2018-06-04T14:37:05.448Z,26.33
2018-06-04T14:39:34.383Z,25.11
2018-06-04T14:42:03.374Z,23.65
2018-06-04T14:44:32.394Z,25.27
2018-06-04T14:47:01.424Z,25.94
2018-06-04T14:49:30.423Z,26.44
2018-06-04T14:51:59.462Z,25.02
2018-06-04T14:54:28.452Z,25.65
2018-06-04T14:56:57.495Z,24.59
2018-06-04T14:59:26.452Z,24.39
2018-06-04T15:01:55.453Z,25.26
2018-06-04T15:04:24.456Z,24.90
2018-06-04T15:06:53.585Z,23.82
2018-06-04T15:09:22.657Z,23.81
2018-06-04T15:11:51.692Z,23.83
2018-06-04T15:14:20.642Z,23.60
2018-06-04T15:16:49.712Z,22.80
2018-06-04T15:19:18.708Z,22.03
2018-06-04T15:21:47.749Z,24.29
2018-06-04T15:24:16.710Z,21.40
2018-06-04T15:26:45.844Z,22.15
2018-06-04T15:29:14.829Z,21.98
2018-06-04T15:31:43.817Z,23.07
2018-06-04T15:34:12.941Z,22.18
2018-06-04T15:36:42.794Z,21.60
2018-06-04T15:39:11.943Z,23.47
2018-06-04T15:41:40.934Z,21.71
2018-06-04T15:44:10.005Z,22.73
2018-06-04T15:46:39.132Z,21.41
2018-06-04T15:49:08.926Z,21.46
2018-06-04T15:51:38.681Z,22.29
2018-06-04T15:54:08.451Z,23.31
2018-06-04T15:56:38.210Z,22.74
2018-06-04T15:59:08.356Z,23.12
2018-06-04T16:01:38.077Z,22.62
2018-06-04T16:04:07.849Z,22.56
2018-06-04T16:06:37.581Z,22.25
2018-06-04T16:09:08.697Z,21.52
2018-06-04T16:11:38.458Z,23.12
2018-06-04T16:14:08.233Z,22.38
2018-06-04T16:16:37.950Z,22.68
2018-06-04T16:19:07.659Z,20.72
2018-06-04T16:21:37.480Z,21.77
2018-06-04T16:24:07.295Z,22.97
2018-06-04T16:26:37.087Z,23.64
2018-06-04T16:29:06.864Z,22.03
2018-06-04T16:31:36.719Z,21.52
2018-06-04T16:34:06.566Z,22.71
2018-06-04T16:36:36.321Z,23.98
2018-06-04T16:39:09.268Z,23.94
2018-06-04T16:41:39.031Z,23.78
2018-06-04T16:44:08.808Z,23.64
2018-06-04T16:46:38.574Z,23.38
2018-06-04T16:49:08.365Z,22.78
2018-06-04T16:51:38.067Z,22.33
2018-06-04T16:54:07.852Z,23.49
2018-06-04T16:56:37.646Z,23.55
2018-06-04T16:59:07.610Z,24.67
2018-06-04T17:01:37.308Z,23.65
2018-06-04T17:04:07.643Z,24.90
2018-06-04T17:06:37.332Z,24.82
2018-06-04T17:09:08.836Z,26.05
2018-06-04T17:11:38.536Z,25.31
2018-06-04T17:14:08.397Z,24.32
2018-06-04T17:16:38.072Z,24.69
2018-06-04T17:19:07.892Z,25.77
2018-06-04T17:21:37.646Z,26.18
2018-06-04T17:24:07.440Z,26.80
2018-06-04T17:26:37.114Z,26.57
2018-06-04T17:29:06.980Z,25.80
2018-06-04T17:31:36.747Z,26.39
2018-06-04T17:34:06.472Z,25.81
2018-06-04T17:36:36.178Z,26.41
2018-06-04T17:39:08.414Z,25.51
2018-06-04T17:41:38.342Z,25.26
2018-06-04T17:44:08.096Z,27.23
2018-06-04T17:46:37.826Z,26.80
2018-06-04T17:49:07.648Z,25.94
2018-06-04T17:51:37.317Z,27.32
2018-06-04T17:54:07.095Z,27.40
2018-06-04T17:56:36.766Z,26.19
2018-06-04T17:59:06.844Z,27.62
2018-06-04T18:01:36.482Z,27.79
2018-06-04T18:04:06.352Z,28.28
2018-06-04T18:06:36.062Z,30.09
2018-06-04T18:09:08.907Z,29.57
2018-06-04T18:11:38.715Z,30.56
2018-06-04T18:14:08.461Z,31.17
2018-06-04T18:16:38.152Z,30.31
2018-06-04T18:19:08.035Z,31.83
2018-06-04T18:21:36.962Z,30.57
2018-06-04T18:24:05.958Z,30.69
2018-06-04T18:26:34.890Z,30.57
2018-06-04T18:29:03.921Z,30.15
2018-06-04T18:31:32.852Z,30.13
2018-06-04T18:34:01.823Z,29.99
2018-06-04T18:36:30.803Z,29.14
2018-06-04T18:38:59.792Z,29.12
2018-06-04T18:41:28.734Z,28.62
2018-06-04T18:43:57.742Z,29.91
2018-06-04T18:46:28.192Z,29.39
2018-06-04T18:48:57.197Z,31.20
2018-06-04T18:51:26.126Z,30.88
2018-06-04T18:53:55.106Z,31.09
2018-06-04T18:56:24.042Z,31.47
2018-06-04T18:58:53.017Z,31.52
2018-06-04T19:01:21.952Z,31.37
2018-06-04T19:03:50.931Z,31.45
2018-06-04T19:06:19.894Z,31.88
2018-06-04T19:08:48.910Z,30.72
2018-06-04T19:11:18.771Z,31.17
2018-06-04T19:13:48.585Z,30.94
2018-06-04T19:16:18.420Z,30.98
2018-06-04T19:18:48.221Z,31.89
2018-06-04T19:21:17.925Z,31.86
2018-06-04T19:23:47.685Z,32.18
2018-06-04T19:26:17.391Z,32.31
2018-06-04T19:28:47.337Z,32.75
2018-06-04T19:31:17.018Z,32.66
2018-06-04T19:33:46.757Z,32.67
2018-06-04T19:36:15.701Z,32.57
2018-06-04T19:38:44.677Z,33.51
2018-06-04T19:41:13.626Z,34.23
2018-06-04T19:43:42.634Z,34.61
2018-06-04T19:46:11.562Z,34.55
2018-06-04T19:48:40.526Z,34.65
2018-06-04T19:51:09.462Z,34.65
2018-06-04T19:53:38.439Z,35.35
2018-06-04T19:56:07.434Z,34.85
2018-06-04T19:58:36.411Z,34.76
2018-06-04T20:01:05.397Z,35.90
2018-06-04T20:03:34.364Z,35.88
2018-06-04T20:06:03.321Z,35.78
2018-06-04T20:08:32.263Z,35.58
2018-06-04T20:11:01.226Z,36.83
2018-06-04T20:13:30.194Z,36.74
2018-06-04T20:15:59.166Z,36.31
2018-06-04T20:18:28.094Z,37.52
2018-06-04T20:20:57.396Z,36.26
2018-06-04T20:23:26.309Z,36.78
2018-06-04T20:25:56.003Z,36.26
2018-06-04T20:28:24.917Z,36.10
2018-06-04T20:30:53.936Z,36.36
2018-06-04T20:33:22.880Z,36.45
2018-06-04T20:35:51.851Z,36.94
2018-06-04T20:38:20.883Z,37.31
2018-06-04T20:40:49.853Z,37.45
2018-06-04T20:43:18.769Z,37.28
2018-06-04T20:45:48.561Z,37.04
2018-06-04T20:48:18.271Z,37.96
2018-06-04T20:50:47.983Z,37.45
2018-06-04T20:53:17.652Z,37.86
2018-06-04T20:55:47.380Z,37.61
2018-06-04T20:58:18.071Z,37.80
2018-06-04T21:00:47.055Z,37.29
2018-06-04T21:03:16.012Z,37.61
2018-06-04T21:05:45.425Z,37.48
2018-06-04T21:08:14.394Z,37.67
2018-06-04T21:10:43.956Z,37.33
2018-06-04T21:13:12.997Z,37.13
2018-06-04T21:15:41.988Z,38.81
2018-06-04T21:18:11.155Z,39.36
2018-06-04T21:20:40.464Z,39.73
2018-06-04T21:23:09.524Z,40.20
2018-06-04T21:25:38.582Z,40.47
2018-06-04T21:28:07.588Z,40.58
2018-06-04T21:30:36.582Z,40.32
2018-06-04T21:33:05.534Z,41.02
2018-06-04T21:35:34.501Z,41.13
2018-06-04T21:38:03.445Z,41.83
2018-06-04T21:40:32.441Z,42.62
2018-06-04T21:43:01.382Z,41.80
2018-06-04T21:45:30.375Z,42.29
2018-06-04T21:47:59.353Z,43.45
2018-06-04T21:50:28.371Z,44.23
2018-06-04T21:52:57.338Z,43.46
2018-06-04T21:55:26.367Z,42.46
2018-06-04T21:57:55.338Z,42.42
2018-06-04T22:00:24.322Z,42.87
2018-06-04T22:02:53.253Z,42.83
2018-06-04T22:05:22.253Z,43.02
2018-06-04T22:07:51.215Z,42.92
2018-06-04T22:10:20.222Z,43.38
2018-06-04T22:12:49.154Z,43.04
2018-06-04T22:15:18.177Z,43.59
2018-06-04T22:17:47.132Z,44.54
2018-06-04T22:20:16.106Z,43.69
2018-06-04T22:22:45.067Z,43.99
2018-06-04T22:25:14.096Z,44.21
2018-06-04T22:27:43.094Z,43.81
2018-06-04T22:30:12.061Z,44.01
2018-06-04T22:32:40.998Z,44.40
2018-06-04T22:35:09.971Z,44.72
2018-06-04T22:37:38.924Z,45.23
2018-06-04T22:40:07.915Z,44.87
2018-06-04T22:42:36.888Z,45.11
2018-06-04T22:45:05.866Z,45.97
2018-06-04T22:47:34.790Z,45.66
2018-06-04T22:50:03.780Z,45.47
2018-06-04T22:52:32.717Z,45.64
2018-06-04T22:55:01.695Z,46.13
2018-06-04T22:57:30.624Z,47.03
2018-06-04T22:59:59.643Z,46.71
2018-06-04T23:02:28.594Z,48.28
2018-06-04T23:04:57.535Z,48.63
2018-06-04T23:07:26.525Z,48.46
2018-06-04T23:09:55.562Z,48.33
2018-06-04T23:12:24.537Z,49.59
2018-06-04T23:14:53.466Z,49.95
2018-06-04T23:17:22.462Z,48.58
2018-06-04T23:19:51.390Z,49.30
2018-06-04T23:22:20.353Z,49.93
2018-06-04T23:24:49.311Z,49.80
2018-06-04T23:27:18.292Z,50.59
2018-06-04T23:29:47.263Z,50.17
2018-06-04T23:32:16.265Z,50.18
2018-06-04T23:34:45.203Z,50.65
2018-06-04T23:37:14.163Z,50.33
2018-06-04T23:39:43.093Z,50.27
2018-06-04T23:42:12.086Z,51.15
2018-06-04T23:44:41.020Z,50.90
2018-06-04T23:47:10.017Z,51.08
2018-06-04T23:49:38.974Z,50.61
2018-06-04T23:52:07.975Z,51.32
2018-06-04T23:54:36.902Z,50.19
2018-06-04T23:57:05.909Z,51.06
2018-06-04T23:59:34.821Z,51.92
